createdAt,value
2022-09-27T00:00:59.847Z,37.57
2022-09-27T00:03:27.931Z,38.43
2022-09-27T00:06:05.381Z,38.10
2022-09-27T00:08:33.779Z,38.80
2022-09-27T00:11:02.708Z,40.03
2022-09-27T00:13:30.545Z,41.10
2022-09-27T00:15:59.594Z,39.03
2022-09-27T00:18:27.889Z,39.17
2022-09-27T00:20:55.624Z,41.70
2022-09-27T00:23:24.676Z,40.63
2022-09-27T00:25:58.719Z,41.57
2022-09-27T00:28:27.278Z,42.77
2022-09-27T00:30:55.294Z,40.43
2022-09-27T00:33:22.901Z,43.97
2022-09-27T00:35:50.561Z,39.57
2022-09-27T00:38:18.490Z,37.20
2022-09-27T00:40:48.636Z,40.27
2022-09-27T00:43:20.307Z,38.60
2022-09-27T00:45:51.207Z,39.50
2022-09-27T00:48:23.717Z,39.60
2022-09-27T00:50:54.129Z,41.70
2022-09-27T00:53:28.001Z,39.30
2022-09-27T00:56:00.374Z,38.63
2022-09-27T00:58:32.166Z,39.40
2022-09-27T01:01:03.499Z,38.57
2022-09-27T01:03:40.050Z,42.27
2022-09-27T01:06:10.019Z,42.27
2022-09-27T01:08:37.597Z,42.87
2022-09-27T01:11:15.531Z,40.13
2022-09-27T01:13:53.023Z,39.67
2022-09-27T01:16:31.108Z,38.67
2022-09-27T01:19:12.049Z,41.33
2022-09-27T01:21:45.949Z,40.40
2022-09-27T01:24:37.326Z,40.73
2022-09-27T01:27:29.886Z,45.40
2022-09-27T01:30:25.087Z,43.07
2022-09-27T01:32:59.419Z,42.37
2022-09-27T01:35:35.418Z,43.43
2022-09-27T01:38:14.933Z,43.37
2022-09-27T01:40:52.211Z,44.07
2022-09-27T01:43:25.321Z,42.70
2022-09-27T01:45:59.917Z,44.80
2022-09-27T01:48:34.874Z,41.67
2022-09-27T01:51:08.270Z,42.60
2022-09-27T01:53:39.285Z,43.20
2022-09-27T01:56:13.865Z,41.70
2022-09-27T01:58:47.012Z,41.83
2022-09-27T02:01:18.911Z,41.73
2022-09-27T02:03:50.158Z,39.53
2022-09-27T02:06:22.449Z,42.00
2022-09-27T02:08:55.785Z,42.70
2022-09-27T02:11:23.704Z,39.30
2022-09-27T02:13:55.517Z,40.37
2022-09-27T02:16:33.923Z,38.63
2022-09-27T02:19:10.969Z,37.67
2022-09-27T02:21:43.796Z,39.63
2022-09-27T02:24:15.227Z,38.87
2022-09-27T02:26:46.618Z,38.03
2022-09-27T02:29:19.660Z,41.00
2022-09-27T02:31:48.675Z,37.07
2022-09-27T02:34:20.858Z,38.00
2022-09-27T02:36:49.205Z,37.67
2022-09-27T02:39:19.161Z,34.60
2022-09-27T02:41:47.179Z,36.70
2022-09-27T02:44:17.529Z,32.93
2022-09-27T02:47:09.805Z,35.80
2022-09-27T02:49:51.000Z,37.97
2022-09-27T02:52:31.199Z,36.60
2022-09-27T02:55:09.171Z,36.77
2022-09-27T02:57:48.718Z,37.43
2022-09-27T03:00:20.438Z,38.30
2022-09-27T03:02:59.518Z,36.90
2022-09-27T03:05:30.155Z,38.60
2022-09-27T03:07:57.923Z,40.63
2022-09-27T03:10:27.787Z,36.87
2022-09-27T03:12:56.743Z,37.70
2022-09-27T03:15:24.312Z,39.17
2022-09-27T03:17:53.285Z,41.10
2022-09-27T03:20:20.860Z,37.17
2022-09-27T03:22:48.471Z,35.53
2022-09-27T03:25:16.279Z,35.17
2022-09-27T03:27:44.569Z,34.43
2022-09-27T03:30:15.043Z,32.60
2022-09-27T03:32:44.180Z,32.97
2022-09-27T03:35:13.725Z,35.27
2022-09-27T03:37:41.424Z,34.20
2022-09-27T03:40:10.318Z,32.90
2022-09-27T03:42:38.861Z,35.90
2022-09-27T03:45:07.172Z,33.63
2022-09-27T03:47:34.848Z,35.60
2022-09-27T03:50:02.446Z,35.90
2022-09-27T03:52:31.379Z,34.50
2022-09-27T03:55:02.155Z,34.10
2022-09-27T03:57:30.764Z,31.63
2022-09-27T03:59:59.870Z,31.40
2022-09-27T04:02:27.942Z,34.60
2022-09-27T04:04:55.586Z,32.90
2022-09-27T04:07:23.549Z,32.57
2022-09-27T04:09:52.502Z,30.70
2022-09-27T04:12:20.139Z,29.90
2022-09-27T04:14:47.701Z,29.73
2022-09-27T04:17:15.292Z,31.77
2022-09-27T04:19:42.877Z,30.60
2022-09-27T04:22:10.819Z,31.57
2022-09-27T04:24:38.450Z,29.80
2022-09-27T04:27:07.932Z,31.47
2022-09-27T04:29:35.521Z,29.40
2022-09-27T04:32:03.131Z,28.23
2022-09-27T04:34:48.425Z,27.83
2022-09-27T04:37:15.993Z,26.43
2022-09-27T04:39:43.559Z,26.63
2022-09-27T04:42:12.514Z,31.17
2022-09-27T04:44:40.446Z,28.77
2022-09-27T04:49:40.506Z,28.20
2022-09-27T04:52:08.090Z,28.67
2022-09-27T04:54:35.686Z,28.00
2022-09-27T04:57:03.266Z,26.43
2022-09-27T04:59:32.207Z,27.77
2022-09-27T05:02:00.610Z,28.33
2022-09-27T05:04:28.651Z,28.70
2022-09-27T05:06:57.320Z,29.60
2022-09-27T05:09:25.152Z,27.30
2022-09-27T05:11:52.754Z,25.03
2022-09-27T05:14:20.625Z,23.60
2022-09-27T05:16:49.665Z,23.03
2022-09-27T05:19:17.358Z,23.70
2022-09-27T05:21:45.049Z,24.10
2022-09-27T05:24:12.618Z,22.80
2022-09-27T05:26:40.194Z,24.03
2022-09-27T05:29:07.760Z,24.47
2022-09-27T05:31:35.374Z,23.23
2022-09-27T05:34:04.357Z,24.90
2022-09-27T05:36:32.429Z,26.10
2022-09-27T05:38:59.985Z,25.30
2022-09-27T05:41:27.690Z,25.53
2022-09-27T05:43:55.914Z,24.40
2022-09-27T05:46:23.530Z,22.70
2022-09-27T05:48:51.246Z,23.90
2022-09-27T05:51:21.026Z,22.63
2022-09-27T05:53:48.774Z,22.13
2022-09-27T05:56:17.066Z,22.10
2022-09-27T05:58:44.703Z,22.37
2022-09-27T06:01:12.340Z,22.20
2022-09-27T06:03:41.102Z,21.77
2022-09-27T06:06:10.582Z,21.80
2022-09-27T06:08:40.092Z,22.27
2022-09-27T06:11:10.038Z,21.67
2022-09-27T06:13:37.863Z,22.60
2022-09-27T06:16:06.201Z,22.47
2022-09-27T06:18:33.995Z,22.57
2022-09-27T06:21:02.298Z,22.60
2022-09-27T06:23:32.615Z,22.53
2022-09-27T06:26:04.847Z,23.00
2022-09-27T06:28:33.037Z,23.23
2022-09-27T06:31:01.510Z,23.00
2022-09-27T06:33:29.514Z,22.80
2022-09-27T06:35:57.233Z,24.20
2022-09-27T06:38:25.916Z,22.50
2022-09-27T06:40:53.560Z,22.17
2022-09-27T06:43:22.715Z,22.70
2022-09-27T06:45:50.427Z,22.63
2022-09-27T06:48:18.485Z,23.40
2022-09-27T06:50:47.787Z,22.83
2022-09-27T06:53:16.537Z,22.93
2022-09-27T06:55:45.406Z,21.73
2022-09-27T06:58:30.966Z,22.47
2022-09-27T07:00:59.993Z,22.87
2022-09-27T07:03:35.339Z,22.83
2022-09-27T07:06:06.231Z,22.93
2022-09-27T07:08:35.730Z,22.57
2022-09-27T07:11:05.840Z,23.87
2022-09-27T07:13:34.482Z,24.53
2022-09-27T07:16:03.917Z,22.63
2022-09-27T07:18:31.535Z,22.83
2022-09-27T07:21:00.964Z,23.03
2022-09-27T07:23:29.017Z,23.40
2022-09-27T07:25:56.606Z,21.70
2022-09-27T07:28:24.374Z,22.87
2022-09-27T07:30:56.534Z,23.80
2022-09-27T07:33:25.553Z,23.53
2022-09-27T07:35:53.154Z,22.50
2022-09-27T07:38:20.767Z,23.50
2022-09-27T07:40:48.488Z,23.60
2022-09-27T07:43:16.214Z,23.60
2022-09-27T07:45:43.797Z,23.77
2022-09-27T07:48:14.682Z,23.33
2022-09-27T07:50:43.901Z,23.37
2022-09-27T07:53:13.221Z,22.93
2022-09-27T07:55:42.291Z,23.50
2022-09-27T07:58:11.565Z,24.40
2022-09-27T08:00:40.703Z,22.97
2022-09-27T08:03:09.569Z,23.43
2022-09-27T08:05:37.575Z,23.50
2022-09-27T08:08:06.543Z,22.97
2022-09-27T08:10:35.454Z,23.90
2022-09-27T08:13:04.061Z,23.83
2022-09-27T08:15:32.626Z,24.43
2022-09-27T08:18:00.606Z,24.27
2022-09-27T08:20:28.206Z,23.70
2022-09-27T08:22:56.077Z,24.50
2022-09-27T08:25:25.039Z,23.90
2022-09-27T08:27:57.327Z,23.83
2022-09-27T08:30:25.254Z,24.60
2022-09-27T08:32:56.295Z,24.50
2022-09-27T08:35:24.193Z,24.50
2022-09-27T08:37:56.495Z,24.50
2022-09-27T08:40:32.634Z,24.83
2022-09-27T08:43:07.287Z,24.40
2022-09-27T08:45:43.046Z,23.80
2022-09-27T08:48:11.386Z,24.87
2022-09-27T08:50:43.378Z,23.50
2022-09-27T08:53:20.618Z,23.70
2022-09-27T08:55:52.217Z,24.83
2022-09-27T08:58:25.107Z,24.10
2022-09-27T09:00:55.795Z,24.17
2022-09-27T09:03:26.706Z,23.83
2022-09-27T09:06:08.694Z,24.47
2022-09-27T09:08:47.458Z,23.40
2022-09-27T09:11:53.634Z,24.20
2022-09-27T09:14:39.675Z,24.30
2022-09-27T09:17:21.401Z,24.10
2022-09-27T09:20:04.040Z,24.57
2022-09-27T09:22:45.486Z,24.83
2022-09-27T09:25:24.658Z,24.13
2022-09-27T09:28:05.456Z,24.17
2022-09-27T09:30:41.917Z,23.27
2022-09-27T09:33:19.398Z,23.90
2022-09-27T09:35:54.789Z,24.90
2022-09-27T09:38:27.395Z,23.90
2022-09-27T09:40:59.620Z,22.43
2022-09-27T09:43:34.881Z,22.53
2022-09-27T09:46:06.565Z,24.20
2022-09-27T09:48:44.275Z,23.90
2022-09-27T09:51:18.894Z,24.53
2022-09-27T09:53:52.571Z,23.17
2022-09-27T09:56:25.625Z,22.93
2022-09-27T09:58:57.747Z,22.97
2022-09-27T10:01:29.541Z,23.30
2022-09-27T10:03:57.611Z,21.93
2022-09-27T10:06:27.525Z,22.73
2022-09-27T10:08:55.768Z,21.83
2022-09-27T10:11:26.860Z,21.33
2022-09-27T10:13:56.557Z,22.07
2022-09-27T10:16:28.775Z,21.67
2022-09-27T10:19:01.143Z,21.83
2022-09-27T10:21:31.319Z,21.97
2022-09-27T10:24:13.528Z,21.33
2022-09-27T10:26:46.938Z,21.70
2022-09-27T10:29:24.141Z,21.87
2022-09-27T10:31:53.487Z,22.30
2022-09-27T10:34:31.781Z,22.57
2022-09-27T10:37:17.177Z,23.00
2022-09-27T10:39:46.451Z,21.87
2022-09-27T10:42:32.606Z,21.63
2022-09-27T10:45:23.606Z,21.10
2022-09-27T10:47:51.482Z,20.80
2022-09-27T10:50:49.871Z,21.13
2022-09-27T10:53:15.959Z,20.90
2022-09-27T10:55:47.970Z,20.80
2022-09-27T10:58:20.898Z,20.80
2022-09-27T11:00:58.061Z,20.30
2022-09-27T11:03:28.878Z,21.00
2022-09-27T11:05:56.925Z,21.20
2022-09-27T11:08:30.233Z,21.90
2022-09-27T11:11:17.396Z,20.67
2022-09-27T11:13:59.881Z,20.60
2022-09-27T11:16:42.972Z,21.60
2022-09-27T11:19:22.293Z,21.50
2022-09-27T11:21:56.641Z,21.00
2022-09-27T11:24:41.236Z,21.43
2022-09-27T11:27:20.272Z,20.10
2022-09-27T11:30:02.790Z,20.90
2022-09-27T11:32:46.100Z,21.20
2022-09-27T11:35:32.464Z,22.87
2022-09-27T11:38:12.609Z,20.77
2022-09-27T11:41:00.369Z,21.10
2022-09-27T11:43:41.870Z,21.30
2022-09-27T11:46:29.210Z,21.07
2022-09-27T11:49:31.093Z,21.00
2022-09-27T11:52:12.420Z,20.70
2022-09-27T11:54:58.449Z,20.00
2022-09-27T11:57:32.012Z,19.87
2022-09-27T12:00:07.414Z,19.83
2022-09-27T12:03:05.858Z,20.53
2022-09-27T12:05:42.166Z,20.67
2022-09-27T12:08:22.975Z,20.20
2022-09-27T12:10:59.487Z,20.47
2022-09-27T12:13:34.257Z,21.23
2022-09-27T12:16:03.730Z,18.90
2022-09-27T12:18:37.991Z,21.17
2022-09-27T12:21:09.963Z,19.73
2022-09-27T12:23:42.771Z,20.37
2022-09-27T12:26:14.710Z,20.30
2022-09-27T12:28:49.438Z,20.33
2022-09-27T12:31:30.047Z,20.20
2022-09-27T12:34:09.473Z,20.30
2022-09-27T12:36:45.387Z,19.50
2022-09-27T12:39:21.239Z,19.40
2022-09-27T12:41:56.410Z,19.97
2022-09-27T12:44:24.339Z,19.30
2022-09-27T12:47:05.829Z,19.60
2022-09-27T12:49:45.277Z,21.17
2022-09-27T12:52:23.370Z,20.30
2022-09-27T12:55:16.189Z,20.70
2022-09-27T12:57:52.678Z,20.07
2022-09-27T13:00:23.735Z,19.90
2022-09-27T13:03:27.448Z,20.50
2022-09-27T13:06:21.527Z,21.50
2022-09-27T13:09:08.323Z,20.23
2022-09-27T13:11:48.892Z,20.00
2022-09-27T13:14:21.294Z,19.40
2022-09-27T13:16:51.307Z,20.00
2022-09-27T13:19:43.152Z,20.80
2022-09-27T13:22:35.002Z,20.63
2022-09-27T13:25:16.597Z,20.73
2022-09-27T13:27:44.146Z,19.40
2022-09-27T13:30:50.557Z,18.60
2022-09-27T13:33:46.550Z,20.10
2022-09-27T13:36:32.819Z,19.73
2022-09-27T13:39:19.813Z,20.37
2022-09-27T13:42:08.328Z,20.00
2022-09-27T13:44:44.340Z,20.00
2022-09-27T13:47:27.513Z,19.90
2022-09-27T13:50:00.502Z,20.13
2022-09-27T13:52:34.647Z,20.37
2022-09-27T13:55:03.949Z,20.67
2022-09-27T13:57:50.849Z,21.50
2022-09-27T14:00:21.541Z,21.00
2022-09-27T14:03:05.150Z,20.93
2022-09-27T14:05:38.883Z,21.97
2022-09-27T14:08:15.245Z,20.67
2022-09-27T14:10:44.553Z,20.47
2022-09-27T14:13:20.018Z,20.07
2022-09-27T14:15:48.449Z,20.40
2022-09-27T14:18:16.121Z,19.30
2022-09-27T14:20:46.254Z,21.30
2022-09-27T14:23:18.955Z,20.70
2022-09-27T14:25:47.915Z,19.73
2022-09-27T14:28:25.357Z,20.27
2022-09-27T14:31:14.693Z,21.13
2022-09-27T14:33:42.308Z,19.97
2022-09-27T14:36:41.583Z,19.83
2022-09-27T14:39:15.179Z,19.70
2022-09-27T14:41:42.805Z,20.10
2022-09-27T14:44:16.570Z,19.70
2022-09-27T14:46:44.265Z,19.30
2022-09-27T14:49:23.085Z,19.10
2022-09-27T14:51:54.271Z,18.50
2022-09-27T14:54:25.193Z,18.87
2022-09-27T14:56:54.555Z,19.70
2022-09-27T14:59:30.833Z,18.50
2022-09-27T15:02:01.700Z,18.20
2022-09-27T15:04:32.632Z,18.37
2022-09-27T15:07:01.777Z,19.13
2022-09-27T15:09:33.143Z,18.67
2022-09-27T15:12:05.104Z,18.70
2022-09-27T15:14:37.485Z,17.70
2022-09-27T15:17:06.273Z,19.57
2022-09-27T15:19:34.422Z,19.90
2022-09-27T15:22:23.346Z,19.23
2022-09-27T15:24:50.962Z,18.30
2022-09-27T15:27:21.529Z,18.83
2022-09-27T15:29:52.366Z,19.30
2022-09-27T15:32:23.078Z,19.20
2022-09-27T15:34:50.886Z,18.90
2022-09-27T15:37:28.253Z,18.97
2022-09-27T15:39:55.785Z,18.93
2022-09-27T15:42:23.736Z,19.73
2022-09-27T15:44:54.160Z,18.10
2022-09-27T15:47:41.190Z,18.67
2022-09-27T15:50:34.738Z,19.17
2022-09-27T15:53:05.493Z,18.70
2022-09-27T15:55:35.352Z,19.43
2022-09-27T15:58:06.342Z,19.13
2022-09-27T16:00:36.899Z,19.10
2022-09-27T16:03:04.494Z,19.77
2022-09-27T16:05:33.145Z,18.17
2022-09-27T16:08:01.094Z,19.40
2022-09-27T16:10:36.322Z,19.23
2022-09-27T16:13:03.870Z,18.60
2022-09-27T16:15:31.784Z,19.83
2022-09-27T16:18:01.000Z,19.77
2022-09-27T16:20:29.173Z,20.13
2022-09-27T16:22:57.598Z,21.10
2022-09-27T16:25:25.367Z,20.40
2022-09-27T16:27:53.629Z,20.00
2022-09-27T16:30:23.246Z,21.77
2022-09-27T16:32:50.873Z,20.17
2022-09-27T16:35:22.593Z,20.50
2022-09-27T16:37:50.359Z,19.80
2022-09-27T16:40:19.004Z,19.80
2022-09-27T16:42:49.138Z,19.97
2022-09-27T16:45:19.412Z,19.90
2022-09-27T16:47:47.469Z,21.27
2022-09-27T16:50:33.315Z,20.43
2022-09-27T16:53:02.241Z,20.30
2022-09-27T16:55:30.262Z,20.50
2022-09-27T16:57:59.575Z,20.93
2022-09-27T17:00:28.317Z,22.03
2022-09-27T17:02:55.905Z,21.70
2022-09-27T17:05:23.743Z,23.73
2022-09-27T17:07:52.331Z,22.70
2022-09-27T17:10:21.582Z,22.70
2022-09-27T17:12:49.662Z,21.93
2022-09-27T17:15:17.782Z,21.30
2022-09-27T17:17:49.225Z,22.50
2022-09-27T17:20:16.818Z,22.40
2022-09-27T17:22:44.501Z,22.40
2022-09-27T17:25:12.130Z,21.07
2022-09-27T17:27:41.031Z,20.83
2022-09-27T17:30:09.562Z,21.60
2022-09-27T17:32:38.657Z,21.17
2022-09-27T17:35:09.134Z,20.77
2022-09-27T17:37:36.778Z,21.57
2022-09-27T17:40:05.006Z,22.40
2022-09-27T17:42:33.590Z,23.43
2022-09-27T17:45:02.512Z,22.40
2022-09-27T17:47:47.498Z,24.13
2022-09-27T17:50:28.539Z,24.20
2022-09-27T17:52:58.008Z,25.43
2022-09-27T17:55:26.920Z,23.90
2022-09-27T17:57:54.457Z,23.67
2022-09-27T18:00:23.349Z,23.03
2022-09-27T18:02:51.101Z,23.63
2022-09-27T18:05:21.089Z,23.27
2022-09-27T18:07:48.711Z,22.43
2022-09-27T18:10:17.798Z,24.63
2022-09-27T18:12:45.440Z,23.60
2022-09-27T18:15:13.086Z,23.43
2022-09-27T18:17:43.327Z,24.50
2022-09-27T18:20:11.296Z,23.60
2022-09-27T18:22:38.850Z,23.80
2022-09-27T18:25:07.614Z,23.70
2022-09-27T18:27:35.534Z,24.53
2022-09-27T18:30:03.353Z,23.53
2022-09-27T18:32:30.915Z,24.00
2022-09-27T18:34:59.766Z,23.90
2022-09-27T18:37:27.333Z,24.00
2022-09-27T18:39:55.580Z,23.50
2022-09-27T18:42:23.128Z,24.10
2022-09-27T18:44:50.908Z,23.43
2022-09-27T18:47:18.634Z,23.30
2022-09-27T18:49:46.191Z,23.37
2022-09-27T18:52:15.089Z,22.73
2022-09-27T18:54:43.558Z,23.10
2022-09-27T18:57:11.083Z,23.90
2022-09-27T18:59:38.618Z,22.70
2022-09-27T19:02:06.205Z,23.00
2022-09-27T19:04:34.025Z,23.60
2022-09-27T19:07:01.824Z,24.30
2022-09-27T19:09:31.261Z,23.27
2022-09-27T19:11:58.819Z,23.40
2022-09-27T19:14:26.838Z,23.50
2022-09-27T19:16:54.471Z,24.70
2022-09-27T19:19:22.124Z,24.40
2022-09-27T19:21:49.961Z,23.53
2022-09-27T19:24:18.771Z,23.07
2022-09-27T19:26:47.681Z,25.00
2022-09-27T19:29:15.345Z,26.57
2022-09-27T19:31:43.298Z,27.17
2022-09-27T19:34:11.786Z,26.47
2022-09-27T19:36:39.394Z,26.30
2022-09-27T19:39:07.902Z,25.13
2022-09-27T19:41:35.429Z,24.93
2022-09-27T19:44:04.399Z,23.00
2022-09-27T19:46:32.025Z,24.30
2022-09-27T19:49:01.272Z,23.33
2022-09-27T19:51:30.881Z,23.20
2022-09-27T19:53:58.426Z,22.13
2022-09-27T19:56:26.079Z,22.47
2022-09-27T19:58:53.642Z,22.80
2022-09-27T20:01:24.202Z,23.37
2022-09-27T20:03:55.175Z,22.83
2022-09-27T20:06:22.894Z,23.33
2022-09-27T20:08:50.971Z,22.70
2022-09-27T20:11:20.153Z,23.00
2022-09-27T20:13:47.985Z,22.87
2022-09-27T20:16:17.962Z,22.20
2022-09-27T20:18:48.268Z,23.13
2022-09-27T20:21:17.483Z,23.27
2022-09-27T20:23:45.316Z,22.70
2022-09-27T20:26:14.985Z,22.00
2022-09-27T20:28:43.987Z,22.70
2022-09-27T20:31:13.007Z,22.40
2022-09-27T20:33:43.857Z,22.30
2022-09-27T20:36:14.782Z,22.00
2022-09-27T20:38:43.289Z,21.97
2022-09-27T20:41:11.845Z,22.47
2022-09-27T20:43:39.843Z,22.00
2022-09-27T20:46:08.794Z,21.97
2022-09-27T20:48:37.489Z,21.67
2022-09-27T20:51:05.797Z,22.20
2022-09-27T20:53:36.037Z,21.90
2022-09-27T20:56:03.734Z,21.47
2022-09-27T20:58:33.031Z,21.67
2022-09-27T21:01:06.576Z,21.57
2022-09-27T21:03:34.363Z,21.20
2022-09-27T21:06:02.254Z,21.80
2022-09-27T21:08:30.958Z,21.10
2022-09-27T21:11:07.245Z,21.90
2022-09-27T21:13:35.349Z,21.90
2022-09-27T21:16:04.779Z,22.07
2022-09-27T21:18:32.489Z,23.07
2022-09-27T21:21:01.232Z,24.27
2022-09-27T21:23:29.899Z,25.73
2022-09-27T21:26:06.781Z,26.90
2022-09-27T21:28:35.825Z,26.50
2022-09-27T21:31:05.508Z,25.13
2022-09-27T21:33:33.244Z,24.90
2022-09-27T21:36:01.693Z,23.60
2022-09-27T21:38:30.824Z,23.60
2022-09-27T21:40:59.438Z,23.43
2022-09-27T21:43:30.150Z,23.77
2022-09-27T21:46:02.465Z,23.30
2022-09-27T21:48:30.955Z,23.23
2022-09-27T21:51:09.537Z,23.40
2022-09-27T21:53:38.739Z,21.57
2022-09-27T21:56:07.663Z,21.73
2022-09-27T21:58:38.114Z,21.97
2022-09-27T22:01:10.239Z,21.63
2022-09-27T22:03:38.729Z,22.37
2022-09-27T22:06:09.020Z,22.87
2022-09-27T22:08:36.573Z,21.93
